First Ferry Vi — VRS4293 — position and weather

sailwx.info

Track history (hours):
 
Tides and Currents Weather Stations Pressure Air Temp Water Temp Dewpoint Dewpoint Depression Visibility Wind Speed Wind Dir Waves Ship Positions

First Ferry Vi

Last reported at 2016-Jul-23 23:04 UTC. Time now 2016-Jul-24 01:07 UTC.
Position N 22°17' E 114°11'.

Length 36 m; draft 1.8 m.

Type: Tug. MMSI: 477995028.

Date/timePositionNaut miles runAvg speedWind from/ knotsBaromVisibWave heightAir tempDewpointWater temp
2016-Jul-23 23:04N 22°17' E 114°11'2 4.4
2016-Jul-23 22:31N 22°19' E 114°09'0 0.0
2016-Jul-23 12:30N 22°19' E 114°09'2 2.3
2016-Jul-23 11:33N 22°17' E 114°10'3 1.9
2016-Jul-23 10:13N 22°17' E 114°07'3 4.4
2016-Jul-23 09:32N 22°17' E 114°10'0 0.2
2016-Jul-23 07:29N 22°17' E 114°10'2 0.4
2016-Jul-23 03:33N 22°18' E 114°11'1 0.6
2016-Jul-23 01:33N 22°17' E 114°10'2 2.2
2016-Jul-23 00:32N 22°19' E 114°09'3 1.9
2016-Jul-22 23:11N 22°18' E 114°07'3 0.3
2016-Jul-22 15:33N 22°17' E 114°10'3 2.1
2016-Jul-22 14:13N 22°18' E 114°07'3 1.6
2016-Jul-22 12:31N 22°17' E 114°10'2 1.9
2016-Jul-22 11:26N 22°18' E 114°07'0 0.4
2016-Jul-22 10:11N 22°18' E 114°08'2 0.2
2016-Jul-22 03:28N 22°17' E 114°10'0 0.2
2016-Jul-22 01:28N 22°17' E 114°10'2 1.8
2016-Jul-22 00:33N 22°19' E 114°09'2 1.1
2016-Jul-21 23:08N 22°18' E 114°08'2 0.2
2016-Jul-21 15:33N 22°17' E 114°10'2 1.8
2016-Jul-21 14:12N 22°17' E 114°07'2 3.6
2016-Jul-21 13:32N 22°17' E 114°10'0 0.1
2016-Jul-21 12:33N 22°17' E 114°10'3 2.3
2016-Jul-21 11:26N 22°17' E 114°07'0 0.0
2016-Jul-21 10:12N 22°17' E 114°07'2 3.6
2016-Jul-21 09:34N 22°19' E 114°09'1 0.1
2016-Jul-21 01:17N 22°20' E 114°09'1 1.3
2016-Jul-21 00:33N 22°19' E 114°09'2 1.2
2016-Jul-20 23:09N 22°18' E 114°08'2 0.2
2016-Jul-20 15:33N 22°17' E 114°10'3 2.1
2016-Jul-20 14:13N 22°17' E 114°07'3 1.7
2016-Jul-20 12:33N 22°17' E 114°10'2 1.9
2016-Jul-20 11:25N 22°18' E 114°07'1 0.4
2016-Jul-20 10:13N 22°17' E 114°07'3 0.3
2016-Jul-20 01:04N 22°20' E 114°09'1 1.6
2016-Jul-20 00:33N 22°19' E 114°09'2 1.5
2016-Jul-19 23:09N 22°18' E 114°07'2 0.3
2016-Jul-19 15:33N 22°17' E 114°10'3 2.0
2016-Jul-19 14:11N 22°17' E 114°07'3 4.2
2016-Jul-19 13:33N 22°17' E 114°10'0 0.1
2016-Jul-19 12:33N 22°17' E 114°10'2 2.2
2016-Jul-19 11:26N 22°17' E 114°07'1 0.7
2016-Jul-19 10:10N 22°18' E 114°08'1 2.3
2016-Jul-19 09:33N 22°18' E 114°09'1 1.1
2016-Jul-19 08:22N 22°20' E 114°09'1 0.1
2016-Jul-19 00:32N 22°19' E 114°09'2 1.4
2016-Jul-18 23:10N 22°18' E 114°08'2 0.2
2016-Jul-18 15:33N 22°17' E 114°10'3 2.0
2016-Jul-18 14:13N 22°18' E 114°07'3 1.6
2016-Jul-18 12:32N 22°17' E 114°10'3 2.4
2016-Jul-18 11:27N 22°17' E 114°07'0 0.0
2016-Jul-18 10:12N 22°17' E 114°07'3 0.3
2016-Jul-18 00:33N 22°19' E 114°09'2 1.8
2016-Jul-17 23:10N 22°17' E 114°07'2 0.3
2016-Jul-17 15:19N 22°17' E 114°10'0 0.0
2016-Jul-17 13:33N 22°17' E 114°10'0 0.0
2016-Jul-17 11:33N 22°17' E 114°10'0 0.0
2016-Jul-17 09:31N 22°17' E 114°10'0 0.0
2016-Jul-17 07:31N 22°17' E 114°10'3 0.8
2016-Jul-17 04:13N 22°17' E 114°07'0 0.1
2016-Jul-17 02:33N 22°17' E 114°07'2 0.8
2016-Jul-16 23:33N 22°17' E 114°10'0 0.0
2016-Jul-16 16:33N 22°17' E 114°10'0 0.0
2016-Jul-16 14:28N 22°17' E 114°10'3 3.1
2016-Jul-16 13:33N 22°17' E 114°07'1 0.4
2016-Jul-16 11:13N 22°18' E 114°08'1 1.0
2016-Jul-16 10:33N 22°18' E 114°08'1 1.1
2016-Jul-16 09:22N 22°18' E 114°07'1 1.6
2016-Jul-16 08:34N 22°18' E 114°08'1 1.2
2016-Jul-16 07:22N 22°17' E 114°07'3 0.5
2016-Jul-16 01:18N 22°19' E 114°09'2 1.3
2016-Jul-15 23:30N 22°17' E 114°10'0 0.0
2016-Jul-15 16:28N 22°17' E 114°10'0 0.0
2016-Jul-15 14:32N 22°17' E 114°10'3 2.9
2016-Jul-15 13:33N 22°17' E 114°06'1 0.2
2016-Jul-15 11:13N 22°17' E 114°07'1 2.2
2016-Jul-15 10:33N 22°18' E 114°09'2 1.6
2016-Jul-15 09:23N 22°17' E 114°07'0 0.2
2016-Jul-15 07:21N 22°17' E 114°07'4 0.6
2016-Jul-15 01:11N 22°18' E 114°11'2 0.9
2016-Jul-14 23:32N 22°17' E 114°10'0 0.0
2016-Jul-14 16:32N 22°17' E 114°10'0 0.0
2016-Jul-14 14:28N 22°17' E 114°10'3 2.8
2016-Jul-14 13:32N 22°18' E 114°07'1 0.3
2016-Jul-14 11:12N 22°18' E 114°08'3 0.6
2016-Jul-14 06:33N 22°18' E 114°11'1 0.5
2016-Jul-14 04:23N 22°17' E 114°10'0 0.0
2016-Jul-14 02:17N 22°17' E 114°10'3 3.0
2016-Jul-14 01:27N 22°20' E 114°09'3 1.3
2016-Jul-13 23:33N 22°17' E 114°10'  
Track history (hours):
 
Tides and Currents Weather Stations Pressure Air Temp Water Temp Dewpoint Dewpoint Depression Visibility Wind Speed Wind Dir Waves Ship Positions

First Ferry Vi

Last reported at 2016-Jul-23 23:04 UTC. Time now 2016-Jul-24 01:07 UTC.
Position N 22°17' E 114°11'.

Length 36 m; draft 1.8 m.

Type: Tug. MMSI: 477995028.

Date/timePositionNaut miles runAvg speedWind from/ knotsBaromVisibWave heightAir tempDewpointWater temp
2016-Jul-23 23:04N 22°17' E 114°11'2 4.4
2016-Jul-23 22:31N 22°19' E 114°09'0 0.0
2016-Jul-23 12:30N 22°19' E 114°09'2 2.3
2016-Jul-23 11:33N 22°17' E 114°10'3 1.9
2016-Jul-23 10:13N 22°17' E 114°07'3 4.4
2016-Jul-23 09:32N 22°17' E 114°10'0 0.2
2016-Jul-23 07:29N 22°17' E 114°10'2 0.4
2016-Jul-23 03:33N 22°18' E 114°11'1 0.6
2016-Jul-23 01:33N 22°17' E 114°10'2 2.2
2016-Jul-23 00:32N 22°19' E 114°09'3 1.9
2016-Jul-22 23:11N 22°18' E 114°07'3 0.3
2016-Jul-22 15:33N 22°17' E 114°10'3 2.1
2016-Jul-22 14:13N 22°18' E 114°07'3 1.6
2016-Jul-22 12:31N 22°17' E 114°10'2 1.9
2016-Jul-22 11:26N 22°18' E 114°07'0 0.4
2016-Jul-22 10:11N 22°18' E 114°08'2 0.2
2016-Jul-22 03:28N 22°17' E 114°10'0 0.2
2016-Jul-22 01:28N 22°17' E 114°10'2 1.8
2016-Jul-22 00:33N 22°19' E 114°09'2 1.1
2016-Jul-21 23:08N 22°18' E 114°08'2 0.2
2016-Jul-21 15:33N 22°17' E 114°10'2 1.8
2016-Jul-21 14:12N 22°17' E 114°07'2 3.6
2016-Jul-21 13:32N 22°17' E 114°10'0 0.1
2016-Jul-21 12:33N 22°17' E 114°10'3 2.3
2016-Jul-21 11:26N 22°17' E 114°07'0 0.0
2016-Jul-21 10:12N 22°17' E 114°07'2 3.6
2016-Jul-21 09:34N 22°19' E 114°09'1 0.1
2016-Jul-21 01:17N 22°20' E 114°09'1 1.3
2016-Jul-21 00:33N 22°19' E 114°09'2 1.2
2016-Jul-20 23:09N 22°18' E 114°08'2 0.2
2016-Jul-20 15:33N 22°17' E 114°10'3 2.1
2016-Jul-20 14:13N 22°17' E 114°07'3 1.7
2016-Jul-20 12:33N 22°17' E 114°10'2 1.9
2016-Jul-20 11:25N 22°18' E 114°07'1 0.4
2016-Jul-20 10:13N 22°17' E 114°07'3 0.3
2016-Jul-20 01:04N 22°20' E 114°09'1 1.6
2016-Jul-20 00:33N 22°19' E 114°09'2 1.5
2016-Jul-19 23:09N 22°18' E 114°07'2 0.3
2016-Jul-19 15:33N 22°17' E 114°10'3 2.0
2016-Jul-19 14:11N 22°17' E 114°07'3 4.2
2016-Jul-19 13:33N 22°17' E 114°10'0 0.1
2016-Jul-19 12:33N 22°17' E 114°10'2 2.2
2016-Jul-19 11:26N 22°17' E 114°07'1 0.7
2016-Jul-19 10:10N 22°18' E 114°08'1 2.3
2016-Jul-19 09:33N 22°18' E 114°09'1 1.1
2016-Jul-19 08:22N 22°20' E 114°09'1 0.1
2016-Jul-19 00:32N 22°19' E 114°09'2 1.4
2016-Jul-18 23:10N 22°18' E 114°08'2 0.2
2016-Jul-18 15:33N 22°17' E 114°10'3 2.0
2016-Jul-18 14:13N 22°18' E 114°07'3 1.6
2016-Jul-18 12:32N 22°17' E 114°10'3 2.4
2016-Jul-18 11:27N 22°17' E 114°07'0 0.0
2016-Jul-18 10:12N 22°17' E 114°07'3 0.3
2016-Jul-18 00:33N 22°19' E 114°09'2 1.8
2016-Jul-17 23:10N 22°17' E 114°07'2 0.3
2016-Jul-17 15:19N 22°17' E 114°10'0 0.0
2016-Jul-17 13:33N 22°17' E 114°10'0 0.0
2016-Jul-17 11:33N 22°17' E 114°10'0 0.0
2016-Jul-17 09:31N 22°17' E 114°10'0 0.0
2016-Jul-17 07:31N 22°17' E 114°10'3 0.8
2016-Jul-17 04:13N 22°17' E 114°07'0 0.1
2016-Jul-17 02:33N 22°17' E 114°07'2 0.8
2016-Jul-16 23:33N 22°17' E 114°10'0 0.0
2016-Jul-16 16:33N 22°17' E 114°10'0 0.0
2016-Jul-16 14:28N 22°17' E 114°10'3 3.1
2016-Jul-16 13:33N 22°17' E 114°07'1 0.4
2016-Jul-16 11:13N 22°18' E 114°08'1 1.0
2016-Jul-16 10:33N 22°18' E 114°08'1 1.1
2016-Jul-16 09:22N 22°18' E 114°07'1 1.6
2016-Jul-16 08:34N 22°18' E 114°08'1 1.2
2016-Jul-16 07:22N 22°17' E 114°07'3 0.5
2016-Jul-16 01:18N 22°19' E 114°09'2 1.3
2016-Jul-15 23:30N 22°17' E 114°10'0 0.0
2016-Jul-15 16:28N 22°17' E 114°10'0 0.0
2016-Jul-15 14:32N 22°17' E 114°10'3 2.9
2016-Jul-15 13:33N 22°17' E 114°06'1 0.2
2016-Jul-15 11:13N 22°17' E 114°07'1 2.2
2016-Jul-15 10:33N 22°18' E 114°09'2 1.6
2016-Jul-15 09:23N 22°17' E 114°07'0 0.2
2016-Jul-15 07:21N 22°17' E 114°07'4 0.6
2016-Jul-15 01:11N 22°18' E 114°11'2 0.9
2016-Jul-14 23:32N 22°17' E 114°10'0 0.0
2016-Jul-14 16:32N 22°17' E 114°10'0 0.0
2016-Jul-14 14:28N 22°17' E 114°10'3 2.8
2016-Jul-14 13:32N 22°18' E 114°07'1 0.3
2016-Jul-14 11:12N 22°18' E 114°08'3 0.6
2016-Jul-14 06:33N 22°18' E 114°11'1 0.5
2016-Jul-14 04:23N 22°17' E 114°10'0 0.0
2016-Jul-14 02:17N 22°17' E 114°10'3 3.0
2016-Jul-14 01:27N 22°20' E 114°09'3 1.3
2016-Jul-13 23:33N 22°17' E 114°10'  

Dump ship's entire track history